sensor_id;sensor_type;location;lat;lon;timestamp;P1;durP1;ratioP1;P2;durP2;ratioP2
72127;SDS011;60000;51.030;7.024;2023-04-22T00:02:00;4.90;;;1.85;;
72127;SDS011;60000;51.030;7.024;2023-04-22T00:04:26;6.83;;;2.03;;
72127;SDS011;60000;51.030;7.024;2023-04-22T00:06:51;4.80;;;1.70;;
72127;SDS011;60000;51.030;7.024;2023-04-22T00:09:17;4.93;;;1.75;;
72127;SDS011;60000;51.030;7.024;2023-04-22T00:11:42;5.28;;;2.00;;
72127;SDS011;60000;51.030;7.024;2023-04-22T00:14:07;5.00;;;1.70;;
72127;SDS011;60000;51.030;7.024;2023-04-22T00:16:33;3.70;;;1.40;;
72127;SDS011;60000;51.030;7.024;2023-04-22T00:18:58;3.50;;;1.50;;
72127;SDS011;60000;51.030;7.024;2023-04-22T00:21:23;3.70;;;1.40;;
72127;SDS011;60000;51.030;7.024;2023-04-22T00:23:49;3.70;;;1.30;;
72127;SDS011;60000;51.030;7.024;2023-04-22T00:26:14;3.63;;;1.23;;
72127;SDS011;60000;51.030;7.024;2023-04-22T00:28:39;3.50;;;1.27;;
72127;SDS011;60000;51.030;7.024;2023-04-22T00:31:05;3.80;;;1.20;;
72127;SDS011;60000;51.030;7.024;2023-04-22T00:33:30;3.53;;;1.30;;
72127;SDS011;60000;51.030;7.024;2023-04-22T00:35:55;3.67;;;1.17;;
72127;SDS011;60000;51.030;7.024;2023-04-22T00:38:21;3.27;;;1.30;;
72127;SDS011;60000;51.030;7.024;2023-04-22T00:40:46;3.10;;;1.10;;
72127;SDS011;60000;51.030;7.024;2023-04-22T00:43:12;4.85;;;1.30;;
72127;SDS011;60000;51.030;7.024;2023-04-22T00:45:38;4.40;;;1.40;;
72127;SDS011;60000;51.030;7.024;2023-04-22T00:48:03;3.40;;;1.38;;
72127;SDS011;60000;51.030;7.024;2023-04-22T00:50:29;3.43;;;1.10;;
72127;SDS011;60000;51.030;7.024;2023-04-22T00:52:54;3.17;;;1.13;;
72127;SDS011;60000;51.030;7.024;2023-04-22T00:55:19;3.23;;;1.10;;
72127;SDS011;60000;51.030;7.024;2023-04-22T00:57:45;2.97;;;1.30;;
72127;SDS011;60000;51.030;7.024;2023-04-22T01:00:12;2.55;;;1.02;;
72127;SDS011;60000;51.030;7.024;2023-04-22T01:02:38;2.67;;;1.10;;
72127;SDS011;60000;51.030;7.024;2023-04-22T01:05:04;2.23;;;0.80;;
72127;SDS011;60000;51.030;7.024;2023-04-22T01:07:30;3.88;;;1.23;;
72127;SDS011;60000;51.030;7.024;2023-04-22T01:09:56;3.10;;;1.00;;
72127;SDS011;60000;51.030;7.024;2023-04-22T01:12:21;2.38;;;0.90;;
72127;SDS011;60000;51.030;7.024;2023-04-22T01:14:47;2.60;;;0.90;;
72127;SDS011;60000;51.030;7.024;2023-04-22T01:17:12;2.80;;;1.17;;
72127;SDS011;60000;51.030;7.024;2023-04-22T01:19:40;3.42;;;1.33;;
72127;SDS011;60000;51.030;7.024;2023-04-22T01:22:06;3.30;;;1.13;;
72127;SDS011;60000;51.030;7.024;2023-04-22T01:24:32;3.45;;;1.15;;
72127;SDS011;60000;51.030;7.024;2023-04-22T01:26:57;4.50;;;1.70;;
72127;SDS011;60000;51.030;7.024;2023-04-22T01:29:23;4.23;;;1.50;;
72127;SDS011;60000;51.030;7.024;2023-04-22T01:31:48;4.03;;;1.47;;
72127;SDS011;60000;51.030;7.024;2023-04-22T01:34:14;5.00;;;1.63;;
72127;SDS011;60000;51.030;7.024;2023-04-22T01:36:39;4.10;;;1.50;;
72127;SDS011;60000;51.030;7.024;2023-04-22T01:39:05;3.63;;;1.17;;
72127;SDS011;60000;51.030;7.024;2023-04-22T01:41:31;4.18;;;1.85;;
72127;SDS011;60000;51.030;7.024;2023-04-22T01:43:57;4.10;;;1.50;;
72127;SDS011;60000;51.030;7.024;2023-04-22T01:46:23;4.72;;;1.75;;
72127;SDS011;60000;51.030;7.024;2023-04-22T01:48:48;3.90;;;1.50;;
72127;SDS011;60000;51.030;7.024;2023-04-22T01:51:16;3.65;;;1.30;;
72127;SDS011;60000;51.030;7.024;2023-04-22T01:53:44;3.80;;;1.50;;
72127;SDS011;60000;51.030;7.024;2023-04-22T01:56:10;3.97;;;1.57;;
72127;SDS011;60000;51.030;7.024;2023-04-22T01:58:35;3.67;;;1.40;;
72127;SDS011;60000;51.030;7.024;2023-04-22T02:01:03;3.50;;;1.30;;
72127;SDS011;60000;51.030;7.024;2023-04-22T02:03:28;3.23;;;1.20;;
72127;SDS011;60000;51.030;7.024;2023-04-22T02:05:53;3.53;;;1.20;;
72127;SDS011;60000;51.030;7.024;2023-04-22T02:08:18;3.60;;;1.70;;
72127;SDS011;60000;51.030;7.024;2023-04-22T02:10:44;4.90;;;2.07;;
72127;SDS011;60000;51.030;7.024;2023-04-22T02:13:09;4.30;;;1.73;;
72127;SDS011;60000;51.030;7.024;2023-04-22T02:15:34;4.07;;;1.55;;
72127;SDS011;60000;51.030;7.024;2023-04-22T02:18:00;5.13;;;1.90;;
72127;SDS011;60000;51.030;7.024;2023-04-22T02:20:26;3.80;;;1.55;;
72127;SDS011;60000;51.030;7.024;2023-04-22T02:22:51;4.15;;;1.70;;
72127;SDS011;60000;51.030;7.024;2023-04-22T02:25:17;4.67;;;1.80;;
72127;SDS011;60000;51.030;7.024;2023-04-22T02:27:42;4.80;;;1.60;;
72127;SDS011;60000;51.030;7.024;2023-04-22T02:50:21;3.85;;;1.30;;
72127;SDS011;60000;51.030;7.024;2023-04-22T02:52:46;4.43;;;1.60;;
72127;SDS011;60000;51.030;7.024;2023-04-22T02:55:12;4.50;;;1.65;;
72127;SDS011;60000;51.030;7.024;2023-04-22T02:57:37;3.77;;;1.30;;
72127;SDS011;60000;51.030;7.024;2023-04-22T03:00:03;3.63;;;1.40;;
72127;SDS011;60000;51.030;7.024;2023-04-22T03:02:28;3.40;;;1.30;;
72127;SDS011;60000;51.030;7.024;2023-04-22T03:04:54;3.90;;;1.50;;
72127;SDS011;60000;51.030;7.024;2023-04-22T03:07:19;3.43;;;1.30;;
72127;SDS011;60000;51.030;7.024;2023-04-22T03:09:45;3.37;;;1.20;;
72127;SDS011;60000;51.030;7.024;2023-04-22T03:12:10;3.05;;;1.15;;
72127;SDS011;60000;51.030;7.024;2023-04-22T03:14:35;3.40;;;1.25;;
72127;SDS011;60000;51.030;7.024;2023-04-22T03:17:01;3.60;;;1.30;;
72127;SDS011;60000;51.030;7.024;2023-04-22T03:19:26;3.10;;;1.20;;
72127;SDS011;60000;51.030;7.024;2023-04-22T03:21:51;3.37;;;1.33;;
72127;SDS011;60000;51.030;7.024;2023-04-22T03:24:17;4.07;;;1.27;;
72127;SDS011;60000;51.030;7.024;2023-04-22T03:26:42;3.30;;;1.27;;
72127;SDS011;60000;51.030;7.024;2023-04-22T03:29:08;4.13;;;1.63;;
72127;SDS011;60000;51.030;7.024;2023-04-22T03:31:34;3.85;;;1.40;;
72127;SDS011;60000;51.030;7.024;2023-04-22T03:33:59;3.40;;;1.37;;
72127;SDS011;60000;51.030;7.024;2023-04-22T03:36:25;2.80;;;1.07;;
72127;SDS011;60000;51.030;7.024;2023-04-22T03:38:51;3.40;;;1.40;;
72127;SDS011;60000;51.030;7.024;2023-04-22T03:41:16;4.10;;;1.20;;
72127;SDS011;60000;51.030;7.024;2023-04-22T03:43:42;3.23;;;1.17;;
72127;SDS011;60000;51.030;7.024;2023-04-22T03:46:07;3.88;;;1.42;;
72127;SDS011;60000;51.030;7.024;2023-04-22T03:48:32;3.08;;;1.20;;
72127;SDS011;60000;51.030;7.024;2023-04-22T03:50:59;2.97;;;1.10;;
72127;SDS011;60000;51.030;7.024;2023-04-22T03:53:25;4.00;;;1.40;;
72127;SDS011;60000;51.030;7.024;2023-04-22T03:55:50;2.83;;;1.20;;
72127;SDS011;60000;51.030;7.024;2023-04-22T03:58:16;3.20;;;1.20;;
72127;SDS011;60000;51.030;7.024;2023-04-22T04:00:41;3.95;;;1.67;;
72127;SDS011;60000;51.030;7.024;2023-04-22T04:03:07;4.07;;;1.50;;
72127;SDS011;60000;51.030;7.024;2023-04-22T04:05:32;4.13;;;1.60;;
72127;SDS011;60000;51.030;7.024;2023-04-22T04:07:57;4.57;;;1.60;;
72127;SDS011;60000;51.030;7.024;2023-04-22T04:10:23;3.73;;;1.40;;
72127;SDS011;60000;51.030;7.024;2023-04-22T04:12:48;5.40;;;1.73;;
72127;SDS011;60000;51.030;7.024;2023-04-22T04:15:13;4.87;;;2.10;;
72127;SDS011;60000;51.030;7.024;2023-04-22T04:17:38;4.10;;;1.90;;
72127;SDS011;60000;51.030;7.024;2023-04-22T04:20:04;4.70;;;1.90;;
72127;SDS011;60000;51.030;7.024;2023-04-22T04:22:31;4.30;;;1.90;;
72127;SDS011;60000;51.030;7.024;2023-04-22T04:24:57;3.83;;;1.58;;
72127;SDS011;60000;51.030;7.024;2023-04-22T04:27:22;5.90;;;2.37;;
72127;SDS011;60000;51.030;7.024;2023-04-22T04:29:48;4.20;;;1.63;;
72127;SDS011;60000;51.030;7.024;2023-04-22T04:32:13;4.67;;;1.70;;
72127;SDS011;60000;51.030;7.024;2023-04-22T04:34:39;3.53;;;1.40;;
72127;SDS011;60000;51.030;7.024;2023-04-22T04:37:06;4.38;;;1.85;;
72127;SDS011;60000;51.030;7.024;2023-04-22T04:39:31;3.38;;;1.40;;
72127;SDS011;60000;51.030;7.024;2023-04-22T04:41:57;4.28;;;1.70;;
72127;SDS011;60000;51.030;7.024;2023-04-22T04:44:24;3.88;;;1.60;;
72127;SDS011;60000;51.030;7.024;2023-04-22T04:46:50;3.80;;;1.60;;
72127;SDS011;60000;51.030;7.024;2023-04-22T04:49:16;4.47;;;1.85;;
72127;SDS011;60000;51.030;7.024;2023-04-22T04:51:41;4.53;;;1.67;;
72127;SDS011;60000;51.030;7.024;2023-04-22T04:54:07;4.78;;;1.98;;
72127;SDS011;60000;51.030;7.024;2023-04-22T04:56:32;4.15;;;1.80;;
72127;SDS011;60000;51.030;7.024;2023-04-22T04:58:57;4.70;;;2.00;;
72127;SDS011;60000;51.030;7.024;2023-04-22T05:01:23;5.00;;;2.20;;
72127;SDS011;60000;51.030;7.024;2023-04-22T05:03:48;4.83;;;2.00;;
72127;SDS011;60000;51.030;7.024;2023-04-22T05:06:13;5.20;;;2.30;;
72127;SDS011;60000;51.030;7.024;2023-04-22T05:08:39;4.73;;;2.00;;
72127;SDS011;60000;51.030;7.024;2023-04-22T05:11:04;5.50;;;2.10;;
72127;SDS011;60000;51.030;7.024;2023-04-22T05:13:29;6.55;;;2.25;;
72127;SDS011;60000;51.030;7.024;2023-04-22T05:15:55;5.10;;;2.20;;
72127;SDS011;60000;51.030;7.024;2023-04-22T05:18:20;6.27;;;2.30;;
72127;SDS011;60000;51.030;7.024;2023-04-22T05:20:46;6.55;;;2.22;;
72127;SDS011;60000;51.030;7.024;2023-04-22T05:23:11;5.32;;;2.47;;
72127;SDS011;60000;51.030;7.024;2023-04-22T05:25:36;4.10;;;1.90;;
72127;SDS011;60000;51.030;7.024;2023-04-22T05:28:02;4.63;;;2.00;;
72127;SDS011;60000;51.030;7.024;2023-04-22T05:30:27;5.93;;;2.30;;
72127;SDS011;60000;51.030;7.024;2023-04-22T05:32:53;5.57;;;2.30;;
72127;SDS011;60000;51.030;7.024;2023-04-22T05:35:18;6.30;;;2.10;;
72127;SDS011;60000;51.030;7.024;2023-04-22T05:37:43;5.15;;;2.10;;
72127;SDS011;60000;51.030;7.024;2023-04-22T05:40:09;5.00;;;2.10;;
72127;SDS011;60000;51.030;7.024;2023-04-22T05:42:34;5.17;;;2.00;;
72127;SDS011;60000;51.030;7.024;2023-04-22T05:45:00;5.63;;;1.80;;
72127;SDS011;60000;51.030;7.024;2023-04-22T05:47:26;5.23;;;1.90;;
72127;SDS011;60000;51.030;7.024;2023-04-22T05:49:51;4.88;;;2.10;;
72127;SDS011;60000;51.030;7.024;2023-04-22T05:52:16;5.43;;;2.37;;
72127;SDS011;60000;51.030;7.024;2023-04-22T05:54:42;5.47;;;2.30;;
72127;SDS011;60000;51.030;7.024;2023-04-22T05:57:08;4.80;;;2.20;;
72127;SDS011;60000;51.030;7.024;2023-04-22T05:59:33;5.50;;;2.17;;
72127;SDS011;60000;51.030;7.024;2023-04-22T06:01:59;4.60;;;1.87;;
72127;SDS011;60000;51.030;7.024;2023-04-22T06:04:24;4.70;;;1.92;;
72127;SDS011;60000;51.030;7.024;2023-04-22T06:06:49;5.00;;;2.10;;
72127;SDS011;60000;51.030;7.024;2023-04-22T06:09:17;5.45;;;2.20;;
72127;SDS011;60000;51.030;7.024;2023-04-22T06:11:43;6.40;;;2.33;;
72127;SDS011;60000;51.030;7.024;2023-04-22T06:14:09;4.53;;;2.00;;
72127;SDS011;60000;51.030;7.024;2023-04-22T06:16:34;4.47;;;1.80;;
72127;SDS011;60000;51.030;7.024;2023-04-22T06:18:59;4.40;;;1.73;;
72127;SDS011;60000;51.030;7.024;2023-04-22T06:21:25;5.60;;;2.03;;
72127;SDS011;60000;51.030;7.024;2023-04-22T06:23:50;4.63;;;1.90;;
72127;SDS011;60000;51.030;7.024;2023-04-22T06:26:16;5.63;;;2.17;;
72127;SDS011;60000;51.030;7.024;2023-04-22T06:28:41;5.30;;;2.00;;
72127;SDS011;60000;51.030;7.024;2023-04-22T06:31:06;6.47;;;2.07;;
72127;SDS011;60000;51.030;7.024;2023-04-22T06:33:32;5.17;;;2.47;;
72127;SDS011;60000;51.030;7.024;2023-04-22T06:35:57;5.93;;;2.10;;
72127;SDS011;60000;51.030;7.024;2023-04-22T06:38:23;4.87;;;2.10;;
72127;SDS011;60000;51.030;7.024;2023-04-22T06:40:48;5.97;;;2.10;;
72127;SDS011;60000;51.030;7.024;2023-04-22T06:43:13;4.88;;;2.15;;
72127;SDS011;60000;51.030;7.024;2023-04-22T06:45:39;5.00;;;2.00;;
72127;SDS011;60000;51.030;7.024;2023-04-22T06:48:04;5.67;;;2.30;;
72127;SDS011;60000;51.030;7.024;2023-04-22T06:50:29;4.63;;;2.00;;
72127;SDS011;60000;51.030;7.024;2023-04-22T06:52:55;5.40;;;2.20;;
72127;SDS011;60000;51.030;7.024;2023-04-22T06:55:20;6.53;;;1.90;;
72127;SDS011;60000;51.030;7.024;2023-04-22T06:57:45;4.05;;;2.00;;
72127;SDS011;60000;51.030;7.024;2023-04-22T07:00:11;3.93;;;1.70;;
72127;SDS011;60000;51.030;7.024;2023-04-22T07:02:37;5.60;;;2.13;;
72127;SDS011;60000;51.030;7.024;2023-04-22T07:05:02;4.37;;;2.10;;
72127;SDS011;60000;51.030;7.024;2023-04-22T07:07:27;4.50;;;1.90;;
72127;SDS011;60000;51.030;7.024;2023-04-22T07:09:53;4.63;;;2.00;;
72127;SDS011;60000;51.030;7.024;2023-04-22T07:12:18;5.93;;;2.63;;
72127;SDS011;60000;51.030;7.024;2023-04-22T07:14:44;5.63;;;2.00;;
72127;SDS011;60000;51.030;7.024;2023-04-22T07:17:10;4.78;;;1.70;;
72127;SDS011;60000;51.030;7.024;2023-04-22T07:19:35;5.00;;;2.03;;
72127;SDS011;60000;51.030;7.024;2023-04-22T07:22:01;4.45;;;1.70;;
72127;SDS011;60000;51.030;7.024;2023-04-22T07:24:30;4.80;;;2.10;;
72127;SDS011;60000;51.030;7.024;2023-04-22T07:26:56;4.37;;;1.70;;
72127;SDS011;60000;51.030;7.024;2023-04-22T07:29:22;5.43;;;1.70;;
72127;SDS011;60000;51.030;7.024;2023-04-22T07:31:47;4.23;;;1.70;;
72127;SDS011;60000;51.030;7.024;2023-04-22T07:34:13;5.53;;;1.87;;
72127;SDS011;60000;51.030;7.024;2023-04-22T07:36:38;5.63;;;2.03;;
72127;SDS011;60000;51.030;7.024;2023-04-22T07:39:04;4.20;;;1.67;;
72127;SDS011;60000;51.030;7.024;2023-04-22T07:41:30;3.93;;;1.57;;
72127;SDS011;60000;51.030;7.024;2023-04-22T07:43:55;4.50;;;2.10;;
72127;SDS011;60000;51.030;7.024;2023-04-22T07:46:21;4.70;;;1.73;;
72127;SDS011;60000;51.030;7.024;2023-04-22T07:48:46;5.20;;;1.80;;
72127;SDS011;60000;51.030;7.024;2023-04-22T07:51:15;5.45;;;1.88;;
72127;SDS011;60000;51.030;7.024;2023-04-22T07:53:41;4.43;;;1.70;;
72127;SDS011;60000;51.030;7.024;2023-04-22T07:56:06;4.13;;;1.53;;
72127;SDS011;60000;51.030;7.024;2023-04-22T07:58:32;4.67;;;1.80;;
72127;SDS011;60000;51.030;7.024;2023-04-22T08:00:57;4.07;;;1.80;;
72127;SDS011;60000;51.030;7.024;2023-04-22T08:03:22;4.70;;;2.00;;
72127;SDS011;60000;51.030;7.024;2023-04-22T08:05:48;4.47;;;1.70;;
72127;SDS011;60000;51.030;7.024;2023-04-22T08:08:13;5.40;;;1.65;;
72127;SDS011;60000;51.030;7.024;2023-04-22T08:10:39;3.83;;;1.60;;
72127;SDS011;60000;51.030;7.024;2023-04-22T08:13:04;4.50;;;1.80;;
72127;SDS011;60000;51.030;7.024;2023-04-22T08:15:30;4.60;;;1.77;;
72127;SDS011;60000;51.030;7.024;2023-04-22T08:17:55;3.77;;;1.60;;
72127;SDS011;60000;51.030;7.024;2023-04-22T08:20:20;5.27;;;1.90;;
72127;SDS011;60000;51.030;7.024;2023-04-22T08:22:46;4.73;;;1.97;;
72127;SDS011;60000;51.030;7.024;2023-04-22T08:25:12;5.10;;;1.80;;
72127;SDS011;60000;51.030;7.024;2023-04-22T08:27:38;4.13;;;1.83;;
72127;SDS011;60000;51.030;7.024;2023-04-22T08:30:04;4.77;;;1.87;;
72127;SDS011;60000;51.030;7.024;2023-04-22T08:32:30;5.37;;;2.00;;
72127;SDS011;60000;51.030;7.024;2023-04-22T08:34:56;4.40;;;1.90;;
72127;SDS011;60000;51.030;7.024;2023-04-22T08:37:21;5.80;;;1.80;;
72127;SDS011;60000;51.030;7.024;2023-04-22T08:39:46;4.53;;;1.93;;
72127;SDS011;60000;51.030;7.024;2023-04-22T08:42:12;4.07;;;1.73;;
72127;SDS011;60000;51.030;7.024;2023-04-22T08:44:38;5.10;;;2.05;;
72127;SDS011;60000;51.030;7.024;2023-04-22T08:47:04;3.93;;;1.93;;
72127;SDS011;60000;51.030;7.024;2023-04-22T08:49:30;4.57;;;1.80;;
72127;SDS011;60000;51.030;7.024;2023-04-22T08:51:56;6.57;;;1.90;;
72127;SDS011;60000;51.030;7.024;2023-04-22T08:54:24;4.10;;;1.83;;
72127;SDS011;60000;51.030;7.024;2023-04-22T08:56:50;4.82;;;2.28;;
72127;SDS011;60000;51.030;7.024;2023-04-22T08:59:16;5.57;;;1.75;;
72127;SDS011;60000;51.030;7.024;2023-04-22T09:01:42;6.40;;;1.90;;
72127;SDS011;60000;51.030;7.024;2023-04-22T09:04:08;4.10;;;1.80;;
72127;SDS011;60000;51.030;7.024;2023-04-22T09:06:36;5.25;;;2.05;;
72127;SDS011;60000;51.030;7.024;2023-04-22T09:09:02;4.72;;;1.60;;
72127;SDS011;60000;51.030;7.024;2023-04-22T09:11:28;4.53;;;1.90;;
72127;SDS011;60000;51.030;7.024;2023-04-22T09:13:55;4.78;;;2.08;;
72127;SDS011;60000;51.030;7.024;2023-04-22T09:16:21;6.00;;;1.60;;
72127;SDS011;60000;51.030;7.024;2023-04-22T09:18:46;4.50;;;2.00;;
72127;SDS011;60000;51.030;7.024;2023-04-22T09:21:12;9.07;;;2.13;;
72127;SDS011;60000;51.030;7.024;2023-04-22T09:23:47;5.50;;;1.97;;
72127;SDS011;60000;51.030;7.024;2023-04-22T09:26:20;5.50;;;2.00;;
72127;SDS011;60000;51.030;7.024;2023-04-22T09:28:52;4.38;;;1.95;;
72127;SDS011;60000;51.030;7.024;2023-04-22T09:31:19;3.65;;;1.60;;
72127;SDS011;60000;51.030;7.024;2023-04-22T09:33:55;6.40;;;2.20;;
72127;SDS011;60000;51.030;7.024;2023-04-22T09:36:24;4.97;;;1.90;;
72127;SDS011;60000;51.030;7.024;2023-04-22T09:38:54;4.80;;;1.80;;
72127;SDS011;60000;51.030;7.024;2023-04-22T09:41:31;4.78;;;1.67;;
72127;SDS011;60000;51.030;7.024;2023-04-22T09:44:03;4.00;;;1.60;;
72127;SDS011;60000;51.030;7.024;2023-04-22T09:46:32;3.97;;;1.60;;
72127;SDS011;60000;51.030;7.024;2023-04-22T09:48:59;6.72;;;1.58;;
72127;SDS011;60000;51.030;7.024;2023-04-22T09:51:25;4.63;;;1.80;;
72127;SDS011;60000;51.030;7.024;2023-04-22T09:53:58;4.78;;;2.00;;
72127;SDS011;60000;51.030;7.024;2023-04-22T09:56:39;4.43;;;1.73;;
72127;SDS011;60000;51.030;7.024;2023-04-22T09:59:06;4.43;;;1.70;;
72127;SDS011;60000;51.030;7.024;2023-04-22T10:01:36;6.68;;;2.00;;
72127;SDS011;60000;51.030;7.024;2023-04-22T10:04:03;4.78;;;1.70;;
72127;SDS011;60000;51.030;7.024;2023-04-22T10:06:28;5.20;;;1.70;;
72127;SDS011;60000;51.030;7.024;2023-04-22T10:08:55;4.18;;;1.90;;
72127;SDS011;60000;51.030;7.024;2023-04-22T10:11:22;4.80;;;2.00;;
72127;SDS011;60000;51.030;7.024;2023-04-22T10:13:48;4.50;;;1.77;;
72127;SDS011;60000;51.030;7.024;2023-04-22T10:16:14;5.00;;;1.63;;
72127;SDS011;60000;51.030;7.024;2023-04-22T10:18:39;6.33;;;1.60;;
72127;SDS011;60000;51.030;7.024;2023-04-22T10:21:05;5.18;;;1.60;;
72127;SDS011;60000;51.030;7.024;2023-04-22T10:23:31;4.73;;;1.87;;
72127;SDS011;60000;51.030;7.024;2023-04-22T10:25:57;4.30;;;1.60;;
72127;SDS011;60000;51.030;7.024;2023-04-22T10:28:23;4.93;;;2.13;;
72127;SDS011;60000;51.030;7.024;2023-04-22T10:30:52;4.30;;;1.90;;
72127;SDS011;60000;51.030;7.024;2023-04-22T10:39:13;4.37;;;1.70;;
72127;SDS011;60000;51.030;7.024;2023-04-22T10:41:33;4.70;;;1.73;;
72127;SDS011;60000;51.030;7.024;2023-04-22T10:43:59;3.67;;;1.52;;
72127;SDS011;60000;51.030;7.024;2023-04-22T10:48:55;4.40;;;1.83;;
72127;SDS011;60000;51.030;7.024;2023-04-22T10:54:54;4.38;;;1.55;;
72127;SDS011;60000;51.030;7.024;2023-04-22T10:57:08;6.75;;;1.85;;
72127;SDS011;60000;51.030;7.024;2023-04-22T11:02:10;3.90;;;1.83;;
72127;SDS011;60000;51.030;7.024;2023-04-22T11:04:37;6.65;;;2.13;;
72127;SDS011;60000;51.030;7.024;2023-04-22T11:15:06;6.07;;;1.98;;
72127;SDS011;60000;51.030;7.024;2023-04-22T11:17:46;4.97;;;1.92;;
72127;SDS011;60000;51.030;7.024;2023-04-22T11:20:14;3.80;;;1.67;;
72127;SDS011;60000;51.030;7.024;2023-04-22T11:22:44;4.68;;;1.73;;
72127;SDS011;60000;51.030;7.024;2023-04-22T11:25:10;4.80;;;1.80;;
72127;SDS011;60000;51.030;7.024;2023-04-22T11:27:37;5.03;;;2.00;;
72127;SDS011;60000;51.030;7.024;2023-04-22T11:32:32;4.40;;;1.50;;
72127;SDS011;60000;51.030;7.024;2023-04-22T11:35:01;4.80;;;1.93;;
72127;SDS011;60000;51.030;7.024;2023-04-22T11:37:30;5.45;;;1.92;;
72127;SDS011;60000;51.030;7.024;2023-04-22T11:39:59;5.30;;;2.10;;
72127;SDS011;60000;51.030;7.024;2023-04-22T11:42:25;5.70;;;1.75;;
72127;SDS011;60000;51.030;7.024;2023-04-22T11:44:50;5.93;;;2.07;;
72127;SDS011;60000;51.030;7.024;2023-04-22T11:47:16;4.63;;;2.05;;
72127;SDS011;60000;51.030;7.024;2023-04-22T11:49:53;4.23;;;1.67;;
72127;SDS011;60000;51.030;7.024;2023-04-22T11:52:23;7.30;;;2.33;;
72127;SDS011;60000;51.030;7.024;2023-04-22T11:54:50;8.23;;;2.20;;
72127;SDS011;60000;51.030;7.024;2023-04-22T11:57:15;4.63;;;1.92;;
72127;SDS011;60000;51.030;7.024;2023-04-22T11:59:41;6.18;;;2.03;;
72127;SDS011;60000;51.030;7.024;2023-04-22T12:02:07;5.57;;;2.07;;
72127;SDS011;60000;51.030;7.024;2023-04-22T12:04:40;6.28;;;2.13;;
72127;SDS011;60000;51.030;7.024;2023-04-22T12:07:06;5.72;;;2.20;;
72127;SDS011;60000;51.030;7.024;2023-04-22T12:09:32;6.07;;;2.50;;
72127;SDS011;60000;51.030;7.024;2023-04-22T12:11:57;5.03;;;2.05;;
72127;SDS011;60000;51.030;7.024;2023-04-22T12:14:32;5.77;;;2.17;;
72127;SDS011;60000;51.030;7.024;2023-04-22T12:17:01;5.18;;;2.33;;
72127;SDS011;60000;51.030;7.024;2023-04-22T12:19:28;5.05;;;2.13;;
72127;SDS011;60000;51.030;7.024;2023-04-22T12:21:54;5.60;;;2.70;;
72127;SDS011;60000;51.030;7.024;2023-04-22T12:24:28;8.13;;;2.83;;
72127;SDS011;60000;51.030;7.024;2023-04-22T12:26:54;8.40;;;3.22;;
72127;SDS011;60000;51.030;7.024;2023-04-22T12:29:30;5.28;;;1.83;;
72127;SDS011;60000;51.030;7.024;2023-04-22T12:31:56;8.30;;;2.17;;
72127;SDS011;60000;51.030;7.024;2023-04-22T12:34:22;5.30;;;1.95;;
72127;SDS011;60000;51.030;7.024;2023-04-22T12:36:47;6.03;;;2.10;;
72127;SDS011;60000;51.030;7.024;2023-04-22T12:39:13;4.83;;;2.00;;
72127;SDS011;60000;51.030;7.024;2023-04-22T12:41:39;6.32;;;2.20;;
72127;SDS011;60000;51.030;7.024;2023-04-22T12:44:04;4.63;;;2.07;;
72127;SDS011;60000;51.030;7.024;2023-04-22T12:46:30;6.25;;;2.25;;
72127;SDS011;60000;51.030;7.024;2023-04-22T12:48:55;5.20;;;2.10;;
72127;SDS011;60000;51.030;7.024;2023-04-22T12:51:20;8.50;;;2.30;;
72127;SDS011;60000;51.030;7.024;2023-04-22T12:53:46;4.60;;;2.10;;
72127;SDS011;60000;51.030;7.024;2023-04-22T12:56:11;6.23;;;2.10;;
72127;SDS011;60000;51.030;7.024;2023-04-22T12:58:37;6.30;;;2.53;;
72127;SDS011;60000;51.030;7.024;2023-04-22T13:01:02;6.27;;;2.20;;
72127;SDS011;60000;51.030;7.024;2023-04-22T13:03:27;6.20;;;2.20;;
72127;SDS011;60000;51.030;7.024;2023-04-22T13:05:53;5.63;;;2.30;;
72127;SDS011;60000;51.030;7.024;2023-04-22T13:08:18;5.30;;;2.30;;
72127;SDS011;60000;51.030;7.024;2023-04-22T13:10:44;5.95;;;1.90;;
72127;SDS011;60000;51.030;7.024;2023-04-22T13:13:09;7.17;;;2.20;;
72127;SDS011;60000;51.030;7.024;2023-04-22T13:15:34;5.40;;;2.50;;
72127;SDS011;60000;51.030;7.024;2023-04-22T13:18:00;6.20;;;2.27;;
72127;SDS011;60000;51.030;7.024;2023-04-22T13:20:26;4.65;;;1.60;;
72127;SDS011;60000;51.030;7.024;2023-04-22T13:22:51;4.73;;;2.03;;
72127;SDS011;60000;51.030;7.024;2023-04-22T13:25:16;6.23;;;2.17;;
72127;SDS011;60000;51.030;7.024;2023-04-22T13:27:42;8.67;;;2.17;;
72127;SDS011;60000;51.030;7.024;2023-04-22T13:30:07;5.53;;;2.17;;
72127;SDS011;60000;51.030;7.024;2023-04-22T13:32:33;5.90;;;1.90;;
72127;SDS011;60000;51.030;7.024;2023-04-22T13:34:58;6.30;;;2.13;;
72127;SDS011;60000;51.030;7.024;2023-04-22T13:37:24;5.03;;;2.15;;
72127;SDS011;60000;51.030;7.024;2023-04-22T13:39:49;4.00;;;1.57;;
72127;SDS011;60000;51.030;7.024;2023-04-22T13:42:15;4.07;;;1.73;;
72127;SDS011;60000;51.030;7.024;2023-04-22T13:44:41;4.50;;;1.90;;
72127;SDS011;60000;51.030;7.024;2023-04-22T13:47:06;4.77;;;1.97;;
72127;SDS011;60000;51.030;7.024;2023-04-22T13:49:31;4.47;;;1.70;;
72127;SDS011;60000;51.030;7.024;2023-04-22T13:51:57;5.63;;;1.80;;
72127;SDS011;60000;51.030;7.024;2023-04-22T13:54:22;5.53;;;2.00;;
72127;SDS011;60000;51.030;7.024;2023-04-22T13:56:48;5.47;;;2.10;;
72127;SDS011;60000;51.030;7.024;2023-04-22T13:59:13;6.07;;;1.98;;
72127;SDS011;60000;51.030;7.024;2023-04-22T14:01:40;5.40;;;2.10;;
72127;SDS011;60000;51.030;7.024;2023-04-22T14:04:05;7.00;;;2.47;;
72127;SDS011;60000;51.030;7.024;2023-04-22T14:06:31;3.95;;;1.70;;
72127;SDS011;60000;51.030;7.024;2023-04-22T14:08:57;5.67;;;1.97;;
72127;SDS011;60000;51.030;7.024;2023-04-22T14:11:22;4.13;;;1.70;;
72127;SDS011;60000;51.030;7.024;2023-04-22T14:13:47;5.53;;;1.73;;
72127;SDS011;60000;51.030;7.024;2023-04-22T14:16:13;5.68;;;2.15;;
72127;SDS011;60000;51.030;7.024;2023-04-22T14:18:39;6.43;;;2.67;;
72127;SDS011;60000;51.030;7.024;2023-04-22T14:21:05;7.60;;;2.50;;
72127;SDS011;60000;51.030;7.024;2023-04-22T14:23:33;5.10;;;2.10;;
72127;SDS011;60000;51.030;7.024;2023-04-22T14:25:59;5.50;;;2.20;;
72127;SDS011;60000;51.030;7.024;2023-04-22T14:28:25;4.57;;;2.00;;
72127;SDS011;60000;51.030;7.024;2023-04-22T14:30:51;5.17;;;2.00;;
72127;SDS011;60000;51.030;7.024;2023-04-22T14:33:16;4.82;;;1.88;;
72127;SDS011;60000;51.030;7.024;2023-04-22T14:35:42;5.00;;;2.08;;
72127;SDS011;60000;51.030;7.024;2023-04-22T14:38:08;4.97;;;2.20;;
72127;SDS011;60000;51.030;7.024;2023-04-22T14:40:35;5.10;;;2.25;;
72127;SDS011;60000;51.030;7.024;2023-04-22T14:43:01;5.30;;;2.30;;
72127;SDS011;60000;51.030;7.024;2023-04-22T14:45:29;4.65;;;2.00;;
72127;SDS011;60000;51.030;7.024;2023-04-22T14:47:55;5.75;;;2.63;;
72127;SDS011;60000;51.030;7.024;2023-04-22T14:50:21;6.18;;;2.90;;
72127;SDS011;60000;51.030;7.024;2023-04-22T14:52:47;5.50;;;2.47;;
72127;SDS011;60000;51.030;7.024;2023-04-22T14:55:12;4.80;;;2.30;;
72127;SDS011;60000;51.030;7.024;2023-04-22T14:57:38;4.90;;;2.10;;
72127;SDS011;60000;51.030;7.024;2023-04-22T15:00:04;4.93;;;2.30;;
72127;SDS011;60000;51.030;7.024;2023-04-22T15:02:31;5.03;;;2.30;;
72127;SDS011;60000;51.030;7.024;2023-04-22T15:04:57;4.97;;;2.25;;
72127;SDS011;60000;51.030;7.024;2023-04-22T15:07:22;5.07;;;2.23;;
72127;SDS011;60000;51.030;7.024;2023-04-22T15:09:47;6.33;;;1.90;;
72127;SDS011;60000;51.030;7.024;2023-04-22T15:12:13;4.57;;;2.10;;
72127;SDS011;60000;51.030;7.024;2023-04-22T15:14:38;5.33;;;2.00;;
72127;SDS011;60000;51.030;7.024;2023-04-22T15:17:04;4.90;;;2.10;;
72127;SDS011;60000;51.030;7.024;2023-04-22T15:19:30;6.23;;;2.40;;
72127;SDS011;60000;51.030;7.024;2023-04-22T15:21:55;4.93;;;2.03;;
72127;SDS011;60000;51.030;7.024;2023-04-22T15:24:21;4.63;;;1.70;;
72127;SDS011;60000;51.030;7.024;2023-04-22T15:26:47;5.47;;;1.80;;